Randolph, New Jersey
Current Conditions -  °F | °C
As of 12:45 PM on Wednesday 28 Jan 2015 (Local Time) from KMMU Reporting Station
Clear Clear  
Wind Chill: 22°   Ceiling: Unl
Heat Index: 30°   Visibility: 10mi
Dew Point: 10°   Wind: 9mph
Humidity: 44%   Direction: 360°N
Pressure: 30.08"   Gusts: 20mph
Location:  40.84°N, 74.57°W
Report Text: KMMU 281745Z 36008G17KT 10SM SKC M01/M12 A3008
Loading
Personal Weather Stations






























Interactive Weather Map New forecast layout! Learn more

10-Day Weather Forecast

Advertisements
Track Severe Weather on mobile